Airfield :
LOGIN :

Register | Disclaimer

   EN    FR    IT 

 










Legend :    VFR   Marginal VFR   IFR   Intensive IFR   Very Intensive IFR
Visi :
Ceiling :
>= 8 km
>= 3000ft
5 to 8 km
1000 to 3000 ft
1500m to 5 km
500 to 1000 ft
800 to 1500m
200 to 500 ft
< 800m
< 200 ft
Symbols :   Thunderstorms  Fog  Heavy snow  Heavy precipitations  Wind > 20 kt
SIGMETs :     Misc.  Thunderstorms  Icing  Turbulence  Mountain Waves  Volcanic Ashes







- Airport Elevation : 122 ft
- IATA code : TXL


EDDT - Berlin Tegel Int.

CURRENT METAR :
  • 150150Z AUTO 08005KT 050V120 //// R08L/P2000N R08R/P2000N // ///////// M00/M04 Q1029

EXPIRED METARs :
  • 150120Z 08005KT 040V110 9999 OVC030 M00/M04 Q1029
  • 150050Z 08005KT 040V110 9999 FEW013 OVC034 M00/M04 Q1029
  • 150020Z 08006KT 030V130 9999 FEW013 OVC034 M00/M03 Q1029
  • 142350Z 08005KT 030V120 9999 FEW013 OVC037 M00/M03 Q1029
  • 142320Z 08006KT 030V110 9999 FEW013 OVC037 00/M03 Q1029

TAF TAF EDDT
Valid from the 15 at 00:00 until the 16 at 00:00 UTC


142300Z 1500/1524 08005KT 9999 FEW010 BKN030
TEMPO 1500/1524 BKN010
PROB30
TEMPO 1503/1512 BKN008
No reported NOTAMs for that airfield.



MET'MAP, your aeronautical weather chart ! - Copyright ORBIFLY December 2007 - Disclaimer

ORBIFLY MET'MAP TEAM :

Programming & Development : Alexandra Zaïnal
Concept & Development : Baudouin d'Aumeries
Co-Development & Prog : Marc-Olivier Méhu
Technical & hardware support : Manuel Goepfert

Contact : metmap@orbifly.com




SOURCES & CREDITS :

   NOAA